Time;durP1;ratioP1;P1;durP2;ratioP2;P2;SDS_P1;SDS_P2;PMS_P1;PMS_P2;Temp;Humidity;BMP_temperature;BMP_pressure;BME280_temperature;BME280_humidity;BME280_pressure;Samples;Min_cycle;Max_cycle;Signal;HPM_P1;HPM_P2
2022/06/11 00:01:52;;;;;;;10.40;6.00;;;;;;;-128.00;-1.00;-1.00;100157;1299;1004448;-28
2022/06/11 00:04:24;;;;;;;6.70;5.00;;;;;;;-128.00;-1.00;-1.00;100169;1299;1003658;-24
2022/06/11 00:06:56;;;;;;;12.70;3.40;;;;;;;-128.00;-1.00;-1.00;100186;1299;1003419;-24
2022/06/11 00:09:26;;;;;;;5.30;3.10;;;;;;;-128.00;-1.00;-1.00;100166;1298;1003239;-27
2022/06/11 00:11:55;;;;;;;3.20;2.80;;;;;;;-128.00;-1.00;-1.00;100163;1299;1003915;-25
2022/06/11 00:14:26;;;;;;;3.90;2.70;;;;;;;-128.00;-1.00;-1.00;100207;1298;1003828;-24
2022/06/11 00:16:56;;;;;;;3.70;3.20;;;;;;;-128.00;-1.00;-1.00;100150;1299;1002659;-25
2022/06/11 00:19:26;;;;;;;7.50;5.80;;;;;;;-128.00;-1.00;-1.00;99999;1299;1003915;-27
2022/06/11 00:21:55;;;;;;;7.30;6.30;;;;;;;-128.00;-1.00;-1.00;100127;1299;1003753;-28
2022/06/11 00:24:25;;;;;;;5.00;4.50;;;;;;;-128.00;-1.00;-1.00;100207;1299;1003954;-24
2022/06/11 00:26:55;;;;;;;4.20;3.50;;;;;;;-128.00;-1.00;-1.00;100158;1299;1003895;-28
2022/06/11 00:29:25;;;;;;;3.40;3.00;;;;;;;-128.00;-1.00;-1.00;100156;1299;1004153;-28
2022/06/11 00:31:54;;;;;;;2.30;2.10;;;;;;;-128.00;-1.00;-1.00;100155;1298;1003672;-24
2022/06/11 00:34:24;;;;;;;5.20;3.60;;;;;;;-128.00;-1.00;-1.00;100133;1299;1004355;-28
2022/06/11 00:36:54;;;;;;;4.40;3.80;;;;;;;-128.00;-1.00;-1.00;100209;1299;1004074;-27
2022/06/11 00:39:25;;;;;;;5.40;4.10;;;;;;;-128.00;-1.00;-1.00;100187;1299;1003741;-27
2022/06/11 00:41:58;;;;;;;6.50;5.30;;;;;;;-128.00;-1.00;-1.00;100182;1299;1003069;-28
2022/06/11 00:44:27;;;;;;;9.90;7.80;;;;;;;-128.00;-1.00;-1.00;100168;1299;1004126;-24
2022/06/11 00:47:02;;;;;;;8.10;7.20;;;;;;;-128.00;-1.00;-1.00;100177;1299;1003306;-25
2022/06/11 00:49:31;;;;;;;6.30;5.20;;;;;;;-128.00;-1.00;-1.00;100164;1299;1003357;-28
2022/06/11 00:52:27;;;;;;;3.90;3.10;;;;;;;-128.00;-1.00;-1.00;100168;1297;1004040;-28
2022/06/11 00:55:05;;;;;;;3.70;3.30;;;;;;;-128.00;-1.00;-1.00;100209;1299;1004200;-25
2022/06/11 00:57:39;;;;;;;3.90;3.10;;;;;;;-128.00;-1.00;-1.00;100226;1299;1003329;-26
2022/06/11 01:00:15;;;;;;;2.60;2.40;;;;;;;-128.00;-1.00;-1.00;100180;1299;1003898;-28
2022/06/11 01:02:45;;;;;;;5.20;3.30;;;;;;;-128.00;-1.00;-1.00;100189;1299;1004646;-24
2022/06/11 01:05:18;;;;;;;5.90;2.60;;;;;;;-128.00;-1.00;-1.00;100167;1299;1003461;-26
2022/06/11 01:07:54;;;;;;;2.80;2.40;;;;;;;-128.00;-1.00;-1.00;100193;1299;1003524;-24
2022/06/11 01:10:25;;;;;;;2.80;2.40;;;;;;;-128.00;-1.00;-1.00;100179;1299;1003393;-24
2022/06/11 01:13:00;;;;;;;3.80;2.10;;;;;;;-128.00;-1.00;-1.00;100195;1299;1003330;-27
2022/06/11 01:15:36;;;;;;;2.60;2.40;;;;;;;-128.00;-1.00;-1.00;100187;1299;1003974;-30
2022/06/11 01:18:09;;;;;;;12.80;2.30;;;;;;;-128.00;-1.00;-1.00;100141;1299;1003779;-25
2022/06/11 01:20:45;;;;;;;4.30;3.80;;;;;;;-128.00;-1.00;-1.00;100181;1299;1004080;-24
2022/06/11 01:23:21;;;;;;;4.40;2.60;;;;;;;-128.00;-1.00;-1.00;100164;1299;1004902;-28
2022/06/11 01:25:53;;;;;;;4.60;3.30;;;;;;;-128.00;-1.00;-1.00;100200;1299;1003560;-24
2022/06/11 01:28:31;;;;;;;5.10;3.90;;;;;;;-128.00;-1.00;-1.00;100126;1299;1004659;-24
2022/06/11 01:31:06;;;;;;;4.30;3.70;;;;;;;-128.00;-1.00;-1.00;100151;1299;1003043;-27
2022/06/11 01:33:40;;;;;;;4.90;4.30;;;;;;;-128.00;-1.00;-1.00;100108;1299;1003705;-30
2022/06/11 01:36:14;;;;;;;9.50;3.80;;;;;;;-128.00;-1.00;-1.00;100133;1299;1002785;-29
2022/06/11 01:38:50;;;;;;;5.10;4.60;;;;;;;-128.00;-1.00;-1.00;100195;1299;1003355;-25
2022/06/11 01:41:24;;;;;;;5.70;3.30;;;;;;;-128.00;-1.00;-1.00;100113;1299;1004709;-29
2022/06/11 01:43:57;;;;;;;4.30;3.40;;;;;;;-128.00;-1.00;-1.00;100174;1299;1003178;-25
2022/06/11 01:46:31;;;;;;;3.30;2.90;;;;;;;-128.00;-1.00;-1.00;100142;1299;1004757;-28
2022/06/11 01:49:04;;;;;;;3.00;2.60;;;;;;;-128.00;-1.00;-1.00;100142;1299;1003246;-28
2022/06/11 01:51:36;;;;;;;10.90;2.70;;;;;;;-128.00;-1.00;-1.00;100093;1300;1003689;-25
2022/06/11 01:54:15;;;;;;;5.70;3.30;;;;;;;-128.00;-1.00;-1.00;100120;1299;1003760;-24
2022/06/11 01:56:51;;;;;;;5.10;3.30;;;;;;;-128.00;-1.00;-1.00;100082;1300;1003661;-28
2022/06/11 01:59:30;;;;;;;6.10;3.60;;;;;;;-128.00;-1.00;-1.00;100142;1299;1004340;-25
2022/06/11 02:02:02;;;;;;;3.90;3.10;;;;;;;-128.00;-1.00;-1.00;100184;1299;1004079;-25
2022/06/11 02:04:32;;;;;;;4.20;3.70;;;;;;;-128.00;-1.00;-1.00;100155;1299;1003206;-28
2022/06/11 02:07:04;;;;;;;4.60;3.00;;;;;;;-128.00;-1.00;-1.00;100188;1299;1003324;-24
2022/06/11 02:09:41;;;;;;;4.20;2.30;;;;;;;-128.00;-1.00;-1.00;100173;1299;1002963;-24
2022/06/11 02:12:12;;;;;;;3.40;2.90;;;;;;;-128.00;-1.00;-1.00;100147;1299;1004784;-28
2022/06/11 02:14:48;;;;;;;5.00;2.70;;;;;;;-128.00;-1.00;-1.00;100183;1299;1003967;-28
2022/06/11 02:17:21;;;;;;;5.50;4.30;;;;;;;-128.00;-1.00;-1.00;100145;1299;1002955;-28
2022/06/11 02:19:54;;;;;;;3.40;2.90;;;;;;;-128.00;-1.00;-1.00;100175;1299;1003626;-24
2022/06/11 02:22:29;;;;;;;5.10;3.00;;;;;;;-128.00;-1.00;-1.00;100088;1299;1003613;-28
2022/06/11 02:25:05;;;;;;;2.90;2.20;;;;;;;-128.00;-1.00;-1.00;100114;1299;1004162;-28
2022/06/11 02:27:34;;;;;;;2.50;2.20;;;;;;;-128.00;-1.00;-1.00;100163;1299;1004351;-28
2022/06/11 02:30:06;;;;;;;4.30;3.10;;;;;;;-128.00;-1.00;-1.00;100155;1299;1004033;-25
2022/06/11 02:32:35;;;;;;;7.90;4.30;;;;;;;-128.00;-1.00;-1.00;100164;1298;1003992;-25
2022/06/11 02:35:08;;;;;;;9.30;4.80;;;;;;;-128.00;-1.00;-1.00;100140;1299;1004588;-24
2022/06/11 02:37:40;;;;;;;26.10;4.10;;;;;;;-128.00;-1.00;-1.00;100172;1299;1003072;-28
2022/06/11 02:40:09;;;;;;;14.00;5.60;;;;;;;-128.00;-1.00;-1.00;100150;1299;1003363;-24
2022/06/11 02:42:38;;;;;;;4.40;3.90;;;;;;;-128.00;-1.00;-1.00;100182;1299;1004633;-24
2022/06/11 02:45:10;;;;;;;4.10;3.20;;;;;;;-128.00;-1.00;-1.00;100145;1299;1004181;-28
2022/06/11 02:47:40;;;;;;;4.30;3.30;;;;;;;-128.00;-1.00;-1.00;100105;1300;1002738;-25
2022/06/11 02:50:12;;;;;;;3.80;3.20;;;;;;;-128.00;-1.00;-1.00;100166;1299;1003164;-25
2022/06/11 02:52:42;;;;;;;3.70;3.40;;;;;;;-128.00;-1.00;-1.00;100164;1299;1004697;-28
2022/06/11 02:55:11;;;;;;;5.50;4.00;;;;;;;-128.00;-1.00;-1.00;100212;1299;1003649;-28
2022/06/11 02:57:40;;;;;;;3.20;2.70;;;;;;;-128.00;-1.00;-1.00;100062;1299;1003715;-28
2022/06/11 03:00:11;;;;;;;9.80;3.60;;;;;;;-128.00;-1.00;-1.00;100169;1299;1004177;-29
2022/06/11 03:02:41;;;;;;;5.10;3.30;;;;;;;-128.00;-1.00;-1.00;100171;1299;1003701;-29
2022/06/11 03:05:10;;;;;;;4.40;3.80;;;;;;;-128.00;-1.00;-1.00;100148;1299;1003873;-29
2022/06/11 03:07:39;;;;;;;5.30;3.10;;;;;;;-128.00;-1.00;-1.00;100402;1299;1004303;-29
2022/06/11 03:10:09;;;;;;;2.20;1.80;;;;;;;-128.00;-1.00;-1.00;100230;1299;1003238;-28
2022/06/11 03:12:38;;;;;;;3.30;2.90;;;;;;;-128.00;-1.00;-1.00;100044;1300;1004274;-23
2022/06/11 03:15:07;;;;;;;7.00;2.80;;;;;;;-128.00;-1.00;-1.00;100201;1299;1003008;-24
2022/06/11 03:17:36;;;;;;;3.70;3.30;;;;;;;-128.00;-1.00;-1.00;100182;1299;1003036;-28
2022/06/11 03:20:06;;;;;;;6.30;4.70;;;;;;;-128.00;-1.00;-1.00;100214;1299;1003357;-24
2022/06/11 03:22:36;;;;;;;4.30;3.20;;;;;;;-128.00;-1.00;-1.00;100158;1299;1004321;-24
2022/06/11 03:25:05;;;;;;;4.60;4.20;;;;;;;-128.00;-1.00;-1.00;100174;1299;1004319;-24
2022/06/11 03:27:35;;;;;;;5.30;3.40;;;;;;;-128.00;-1.00;-1.00;100150;1299;1003644;-24
2022/06/11 03:30:07;;;;;;;3.30;2.40;;;;;;;-128.00;-1.00;-1.00;100477;1299;1004705;-29
2022/06/11 03:32:36;;;;;;;2.40;2.30;;;;;;;-128.00;-1.00;-1.00;100311;1298;1005503;-26
2022/06/11 03:35:05;;;;;;;4.10;2.80;;;;;;;-128.00;-1.00;-1.00;100178;1299;1003860;-24
2022/06/11 03:37:35;;;;;;;4.40;2.70;;;;;;;-128.00;-1.00;-1.00;100182;1299;1003587;-26
2022/06/11 03:40:06;;;;;;;5.40;3.60;;;;;;;-128.00;-1.00;-1.00;100137;1299;1004612;-26
2022/06/11 03:42:35;;;;;;;5.10;4.20;;;;;;;-128.00;-1.00;-1.00;100131;1299;1004155;-26
2022/06/11 03:45:05;;;;;;;6.50;4.50;;;;;;;-128.00;-1.00;-1.00;100244;1299;1004609;-26
2022/06/11 03:47:36;;;;;;;4.20;3.60;;;;;;;-128.00;-1.00;-1.00;100126;1299;1004074;-30
2022/06/11 03:50:08;;;;;;;10.90;3.20;;;;;;;-128.00;-1.00;-1.00;100027;1299;1004048;-28
2022/06/11 03:52:38;;;;;;;4.20;3.30;;;;;;;-128.00;-1.00;-1.00;100183;1299;1004014;-25
2022/06/11 03:55:07;;;;;;;8.70;3.80;;;;;;;-128.00;-1.00;-1.00;100500;1299;1003263;-28
2022/06/11 03:57:37;;;;;;;9.80;3.50;;;;;;;-128.00;-1.00;-1.00;100179;1299;1003664;-28
2022/06/11 04:00:08;;;;;;;3.10;2.80;;;;;;;-128.00;-1.00;-1.00;100067;1299;1003466;-28
2022/06/11 04:02:37;;;;;;;4.40;3.10;;;;;;;-128.00;-1.00;-1.00;100176;1299;1003696;-28
2022/06/11 04:05:07;;;;;;;4.20;3.10;;;;;;;-128.00;-1.00;-1.00;100219;1299;1004322;-28
2022/06/11 04:07:36;;;;;;;4.20;3.10;;;;;;;-128.00;-1.00;-1.00;100207;1299;1004421;-25
2022/06/11 04:10:06;;;;;;;7.90;3.40;;;;;;;-128.00;-1.00;-1.00;100243;1299;1003475;-28
2022/06/11 04:12:35;;;;;;;6.00;3.20;;;;;;;-128.00;-1.00;-1.00;100190;1299;1003304;-28
2022/06/11 04:15:05;;;;;;;3.00;2.50;;;;;;;-128.00;-1.00;-1.00;99842;1299;1357821;-28
2022/06/11 04:17:34;;;;;;;7.20;3.40;;;;;;;-128.00;-1.00;-1.00;100664;1299;1003560;-28
2022/06/11 04:20:04;;;;;;;2.90;2.60;;;;;;;-128.00;-1.00;-1.00;100076;1300;1003221;-25
2022/06/11 04:22:33;;;;;;;4.80;4.10;;;;;;;-128.00;-1.00;-1.00;100100;1299;1004028;-28
2022/06/11 04:25:02;;;;;;;5.00;4.10;;;;;;;-128.00;-1.00;-1.00;100159;1299;1003292;-28
2022/06/11 04:27:31;;;;;;;3.30;2.60;;;;;;;-128.00;-1.00;-1.00;100131;1299;1003792;-25
2022/06/11 04:30:00;;;;;;;5.00;4.00;;;;;;;-128.00;-1.00;-1.00;100180;1299;1004297;-25
2022/06/11 04:32:30;;;;;;;6.70;3.40;;;;;;;-128.00;-1.00;-1.00;100134;1299;1003443;-26
2022/06/11 04:35:00;;;;;;;4.10;3.50;;;;;;;-128.00;-1.00;-1.00;100189;1299;1003332;-28
2022/06/11 04:37:30;;;;;;;8.20;4.30;;;;;;;-128.00;-1.00;-1.00;100123;1299;1003341;-26
2022/06/11 04:40:00;;;;;;;13.70;4.60;;;;;;;-128.00;-1.00;-1.00;100138;1299;1003855;-24
2022/06/11 04:42:30;;;;;;;13.20;4.50;;;;;;;-128.00;-1.00;-1.00;100279;1299;1003528;-26
2022/06/11 04:44:59;;;;;;;11.10;5.40;;;;;;;-128.00;-1.00;-1.00;100191;1299;1003941;-26
2022/06/11 04:47:29;;;;;;;11.30;3.70;;;;;;;-128.00;-1.00;-1.00;100212;1299;1003668;-24
2022/06/11 04:49:59;;;;;;;15.50;5.70;;;;;;;-128.00;-1.00;-1.00;100124;1299;1003029;-25
2022/06/11 04:52:28;;;;;;;6.10;5.00;;;;;;;-128.00;-1.00;-1.00;100142;1299;1003281;-29
2022/06/11 04:54:57;;;;;;;8.10;5.10;;;;;;;-128.00;-1.00;-1.00;100143;1299;1003493;-26
2022/06/11 04:57:26;;;;;;;9.80;4.60;;;;;;;-128.00;-1.00;-1.00;100085;1299;1004599;-25
2022/06/11 04:59:55;;;;;;;6.40;4.00;;;;;;;-128.00;-1.00;-1.00;100207;1299;1003438;-28
2022/06/11 05:02:25;;;;;;;4.50;4.10;;;;;;;-128.00;-1.00;-1.00;100126;1299;1004772;-28
2022/06/11 05:04:54;;;;;;;12.30;4.20;;;;;;;-128.00;-1.00;-1.00;100214;1299;1002945;-25
2022/06/11 05:07:23;;;;;;;5.70;4.30;;;;;;;-128.00;-1.00;-1.00;100552;1299;1003094;-25
2022/06/11 05:09:52;;;;;;;9.40;4.50;;;;;;;-128.00;-1.00;-1.00;100169;1299;1003667;-25
2022/06/11 05:12:22;;;;;;;5.30;4.60;;;;;;;-128.00;-1.00;-1.00;100152;1297;1003930;-28
2022/06/11 05:14:51;;;;;;;11.80;5.80;;;;;;;-128.00;-1.00;-1.00;100227;1299;1004082;-28
2022/06/11 05:17:20;;;;;;;5.00;4.50;;;;;;;-128.00;-1.00;-1.00;100124;1299;1004345;-25
2022/06/11 05:19:49;;;;;;;8.80;4.10;;;;;;;-128.00;-1.00;-1.00;100167;1299;1004575;-28
2022/06/11 05:22:18;;;;;;;10.30;4.70;;;;;;;-128.00;-1.00;-1.00;100149;1299;1005100;-25
2022/06/11 05:24:48;;;;;;;6.30;4.80;;;;;;;-128.00;-1.00;-1.00;100213;1299;1003820;-28
2022/06/11 05:27:20;;;;;;;12.40;5.10;;;;;;;-128.00;-1.00;-1.00;100143;1299;1004088;-24
2022/06/11 05:29:54;;;;;;;4.30;3.20;;;;;;;-128.00;-1.00;-1.00;100071;1299;1003146;-28
2022/06/11 05:32:27;;;;;;;4.70;4.20;;;;;;;-128.00;-1.00;-1.00;100152;1299;1004136;-30
2022/06/11 05:34:57;;;;;;;5.90;4.60;;;;;;;-128.00;-1.00;-1.00;100246;1299;1003361;-30
2022/06/11 05:37:26;;;;;;;6.70;4.60;;;;;;;-128.00;-1.00;-1.00;100182;1299;1003162;-27
2022/06/11 05:39:56;;;;;;;5.60;5.00;;;;;;;-128.00;-1.00;-1.00;100179;1299;1003832;-29
2022/06/11 05:42:25;;;;;;;3.90;3.50;;;;;;;-128.00;-1.00;-1.00;100161;1299;1004256;-26
2022/06/11 05:44:54;;;;;;;4.50;3.50;;;;;;;-128.00;-1.00;-1.00;100150;1299;1003125;-26
2022/06/11 05:47:24;;;;;;;4.60;2.50;;;;;;;-128.00;-1.00;-1.00;100107;1299;1003321;-28
2022/06/11 05:49:55;;;;;;;3.30;3.00;;;;;;;-128.00;-1.00;-1.00;100216;1299;1003850;-25
2022/06/11 05:52:32;;;;;;;3.00;2.50;;;;;;;-128.00;-1.00;-1.00;100145;1298;1004057;-25
2022/06/11 05:55:01;;;;;;;8.90;3.30;;;;;;;-128.00;-1.00;-1.00;100195;1299;1004098;-29
2022/06/11 05:57:30;;;;;;;3.60;3.20;;;;;;;-128.00;-1.00;-1.00;100144;1298;1003924;-28
2022/06/11 06:00:01;;;;;;;10.80;2.80;;;;;;;-128.00;-1.00;-1.00;100135;1299;1004812;-25
2022/06/11 06:02:30;;;;;;;3.60;2.60;;;;;;;-128.00;-1.00;-1.00;100110;1299;1003021;-28
2022/06/11 06:04:59;;;;;;;2.70;2.20;;;;;;;-128.00;-1.00;-1.00;100289;1299;1003783;-24
2022/06/11 06:07:28;;;;;;;2.30;1.90;;;;;;;-128.00;-1.00;-1.00;100280;1299;1003820;-24
2022/06/11 06:09:57;;;;;;;2.60;1.70;;;;;;;-128.00;-1.00;-1.00;100214;1299;1004043;-23
2022/06/11 06:12:31;;;;;;;8.50;1.90;;;;;;;-128.00;-1.00;-1.00;100213;1299;1003422;-24
2022/06/11 06:15:03;;;;;;;5.00;2.40;;;;;;;-128.00;-1.00;-1.00;100104;1299;1003020;-27
2022/06/11 06:17:32;;;;;;;5.60;2.10;;;;;;;-128.00;-1.00;-1.00;100147;1299;1003867;-28
2022/06/11 06:20:03;;;;;;;3.80;2.40;;;;;;;-128.00;-1.00;-1.00;100206;1298;1003830;-24
2022/06/11 06:22:32;;;;;;;5.20;1.30;;;;;;;-128.00;-1.00;-1.00;100030;1299;1003697;-24
2022/06/11 06:25:02;;;;;;;2.30;1.80;;;;;;;-128.00;-1.00;-1.00;100135;1299;1003701;-28
2022/06/11 06:27:31;;;;;;;2.60;1.60;;;;;;;-128.00;-1.00;-1.00;100156;1298;1003574;-25
2022/06/11 06:30:00;;;;;;;4.00;1.70;;;;;;;-128.00;-1.00;-1.00;100174;1298;1003996;-29
2022/06/11 06:32:30;;;;;;;3.50;2.10;;;;;;;-128.00;-1.00;-1.00;100166;1299;1004223;-26
2022/06/11 06:34:59;;;;;;;1.70;1.50;;;;;;;-128.00;-1.00;-1.00;100173;1298;1003166;-26
2022/06/11 06:37:28;;;;;;;1.90;1.50;;;;;;;-128.00;-1.00;-1.00;100178;1299;1003800;-27
2022/06/11 06:39:58;;;;;;;3.90;1.50;;;;;;;-128.00;-1.00;-1.00;100110;1298;1004100;-27
2022/06/11 06:42:27;;;;;;;4.40;1.50;;;;;;;-128.00;-1.00;-1.00;100151;1299;1003477;-27
2022/06/11 06:44:57;;;;;;;2.00;1.30;;;;;;;-128.00;-1.00;-1.00;100161;1299;1003617;-28
2022/06/11 06:47:26;;;;;;;2.00;1.60;;;;;;;-128.00;-1.00;-1.00;100185;1299;1003275;-24
2022/06/11 06:49:55;;;;;;;1.70;1.30;;;;;;;-128.00;-1.00;-1.00;100168;1299;1004423;-24
2022/06/11 06:52:24;;;;;;;2.20;0.90;;;;;;;-128.00;-1.00;-1.00;100124;1299;1003850;-24
2022/06/11 06:54:54;;;;;;;2.40;1.50;;;;;;;-128.00;-1.00;-1.00;100141;1298;1003535;-24
2022/06/11 06:57:23;;;;;;;1.30;1.10;;;;;;;-128.00;-1.00;-1.00;100144;1299;1004467;-27
2022/06/11 06:59:52;;;;;;;2.00;1.20;;;;;;;-128.00;-1.00;-1.00;100064;1299;1003733;-24
2022/06/11 07:02:21;;;;;;;1.40;0.60;;;;;;;-128.00;-1.00;-1.00;100181;1298;1003161;-28
2022/06/11 07:04:50;;;;;;;3.40;1.20;;;;;;;-128.00;-1.00;-1.00;100176;1299;1002917;-24
2022/06/11 07:07:20;;;;;;;0.80;0.70;;;;;;;-128.00;-1.00;-1.00;100087;1299;1003146;-27
2022/06/11 07:09:53;;;;;;;0.60;0.50;;;;;;;-128.00;-1.00;-1.00;100071;1299;1003295;-27
2022/06/11 07:12:23;;;;;;;1.50;0.70;;;;;;;-128.00;-1.00;-1.00;100203;1299;1002827;-24
2022/06/11 07:14:52;;;;;;;1.30;0.70;;;;;;;-128.00;-1.00;-1.00;100175;1299;1003912;-27
2022/06/11 07:17:21;;;;;;;1.30;0.60;;;;;;;-128.00;-1.00;-1.00;100216;1299;1003203;-24
2022/06/11 07:19:53;;;;;;;1.10;0.50;;;;;;;-128.00;-1.00;-1.00;99981;1299;1003275;-27
2022/06/11 07:22:25;;;;;;;0.90;0.80;;;;;;;-128.00;-1.00;-1.00;100208;1299;1003345;-24
2022/06/11 07:24:55;;;;;;;1.30;0.70;;;;;;;-128.00;-1.00;-1.00;100108;1299;1002813;-24
2022/06/11 07:27:25;;;;;;;1.70;0.80;;;;;;;-128.00;-1.00;-1.00;100194;1297;1004635;-27
2022/06/11 07:29:57;;;;;;;5.20;0.90;;;;;;;-128.00;-1.00;-1.00;100282;1299;1004431;-24
2022/06/11 07:32:26;;;;;;;0.80;0.70;;;;;;;-128.00;-1.00;-1.00;100135;1299;1003778;-24
2022/06/11 07:34:55;;;;;;;0.70;0.50;;;;;;;-128.00;-1.00;-1.00;100174;1299;1003431;-24
2022/06/11 07:37:25;;;;;;;4.60;0.60;;;;;;;-128.00;-1.00;-1.00;100189;1299;1003302;-26
2022/06/11 07:39:54;;;;;;;1.40;0.40;;;;;;;-128.00;-1.00;-1.00;100145;1299;1003788;-27
2022/06/11 07:42:24;;;;;;;1.30;0.60;;;;;;;-128.00;-1.00;-1.00;100176;1299;1003699;-27
2022/06/11 07:44:53;;;;;;;1.50;0.40;;;;;;;-128.00;-1.00;-1.00;100172;1299;1003523;-24
2022/06/11 07:49:55;;;;;;;0.50;0.30;;;;;;;-128.00;-1.00;-1.00;100156;1299;1003709;-24
2022/06/11 07:52:24;;;;;;;1.20;0.40;;;;;;;-128.00;-1.00;-1.00;100123;1299;1004383;-28
2022/06/11 07:54:53;;;;;;;0.80;0.60;;;;;;;-128.00;-1.00;-1.00;100143;1298;1004684;-24
2022/06/11 07:57:22;;;;;;;0.70;0.30;;;;;;;-128.00;-1.00;-1.00;100377;1299;1003510;-24
2022/06/11 07:59:52;;;;;;;0.40;0.40;;;;;;;-128.00;-1.00;-1.00;100301;1299;1003624;-24
2022/06/11 08:02:21;;;;;;;0.80;0.30;;;;;;;-128.00;-1.00;-1.00;100207;1299;1003713;-24
2022/06/11 08:04:51;;;;;;;0.80;0.50;;;;;;;-128.00;-1.00;-1.00;100156;1299;1003485;-28
2022/06/11 08:07:21;;;;;;;0.70;0.40;;;;;;;-128.00;-1.00;-1.00;100172;1299;1004546;-24
2022/06/11 08:09:50;;;;;;;0.60;0.40;;;;;;;-128.00;-1.00;-1.00;100162;1296;1003391;-24
2022/06/11 08:12:19;;;;;;;1.70;0.60;;;;;;;-128.00;-1.00;-1.00;100118;1299;1003474;-28
2022/06/11 08:14:49;;;;;;;6.60;0.60;;;;;;;-128.00;-1.00;-1.00;100172;1299;1004679;-24
2022/06/11 08:17:18;;;;;;;0.50;0.40;;;;;;;-128.00;-1.00;-1.00;100075;1299;1003993;-24
2022/06/11 08:19:47;;;;;;;0.50;0.40;;;;;;;-128.00;-1.00;-1.00;100445;1299;1003590;-28
2022/06/11 08:22:16;;;;;;;2.50;0.50;;;;;;;-128.00;-1.00;-1.00;100195;1299;1003689;-28
2022/06/11 08:24:46;;;;;;;0.70;0.40;;;;;;;-128.00;-1.00;-1.00;100201;1299;1003263;-26
2022/06/11 08:27:15;;;;;;;1.10;0.60;;;;;;;-128.00;-1.00;-1.00;100225;1299;1002885;-24
2022/06/11 08:29:45;;;;;;;1.20;0.50;;;;;;;-128.00;-1.00;-1.00;100135;1299;1003880;-24
2022/06/11 08:32:14;;;;;;;1.20;0.40;;;;;;;-128.00;-1.00;-1.00;100199;1299;1003067;-30
2022/06/11 08:34:45;;;;;;;0.60;0.40;;;;;;;-128.00;-1.00;-1.00;100164;1299;1003375;-27
2022/06/11 08:37:14;;;;;;;1.30;0.50;;;;;;;-128.00;-1.00;-1.00;100134;1299;1003276;-25
2022/06/11 08:39:43;;;;;;;0.50;0.30;;;;;;;-128.00;-1.00;-1.00;100174;1299;1004183;-30
2022/06/11 08:42:19;;;;;;;0.60;0.30;;;;;;;-128.00;-1.00;-1.00;100323;1299;1003545;-26
2022/06/11 08:44:48;;;;;;;0.80;0.40;;;;;;;-128.00;-1.00;-1.00;100273;1299;1004242;-25
2022/06/11 08:47:21;;;;;;;3.70;0.60;;;;;;;-128.00;-1.00;-1.00;100067;1299;1003671;-28
2022/06/11 08:49:50;;;;;;;2.20;0.30;;;;;;;-128.00;-1.00;-1.00;101143;1299;1004523;-28
2022/06/11 08:52:23;;;;;;;2.00;0.40;;;;;;;-128.00;-1.00;-1.00;100175;1299;1004071;-29
2022/06/11 08:54:52;;;;;;;1.40;0.40;;;;;;;-128.00;-1.00;-1.00;100182;1298;1003596;-25
2022/06/11 08:57:28;;;;;;;1.20;0.20;;;;;;;-128.00;-1.00;-1.00;100178;1299;1003959;-25
2022/06/11 09:00:08;;;;;;;2.20;0.30;;;;;;;-128.00;-1.00;-1.00;100184;1299;1003369;-25
2022/06/11 09:02:47;;;;;;;1.80;0.60;;;;;;;-128.00;-1.00;-1.00;100089;1299;1003378;-29
2022/06/11 09:05:19;;;;;;;3.10;0.70;;;;;;;-128.00;-1.00;-1.00;100174;1299;1003295;-25
2022/06/11 09:07:52;;;;;;;;;;;;;;;-128.00;-1.00;-1.00;100184;1299;1003063;-24
2022/06/11 09:10:24;;;;;;;4.00;0.70;;;;;;;-128.00;-1.00;-1.00;100199;1299;1002778;-24
2022/06/11 09:12:56;;;;;;;;;;;;;;;-128.00;-1.00;-1.00;100185;1299;1004212;-25
2022/06/11 09:15:40;;;;;;;0.80;0.40;;;;;;;-128.00;-1.00;-1.00;100053;1299;1003555;-24
2022/06/11 09:18:33;;;;;;;2.60;0.70;;;;;;;-128.00;-1.00;-1.00;100162;1299;1003391;-28
2022/06/11 09:21:11;;;;;;;1.60;0.50;;;;;;;-128.00;-1.00;-1.00;100102;1299;1004713;-24
2022/06/11 09:23:45;;;;;;;0.70;0.40;;;;;;;-128.00;-1.00;-1.00;100154;1299;1003951;-24
2022/06/11 09:26:21;;;;;;;0.70;0.50;;;;;;;-128.00;-1.00;-1.00;100189;1299;1004466;-24
2022/06/11 09:29:13;;;;;;;1.90;0.60;;;;;;;-128.00;-1.00;-1.00;100132;1299;1003851;-25
2022/06/11 09:31:46;;;;;;;1.40;0.70;;;;;;;-128.00;-1.00;-1.00;100173;1299;1003479;-24
2022/06/11 09:34:20;;;;;;;1.10;0.80;;;;;;;-128.00;-1.00;-1.00;100166;1299;1003165;-24
2022/06/11 09:36:56;;;;;;;0.90;0.50;;;;;;;-128.00;-1.00;-1.00;100155;1298;1004307;-24
2022/06/11 09:39:29;;;;;;;1.40;0.70;;;;;;;-128.00;-1.00;-1.00;100105;1299;1003322;-28
2022/06/11 09:42:30;;;;;;;6.10;0.40;;;;;;;-128.00;-1.00;-1.00;100183;1299;1003346;-27
2022/06/11 09:45:11;;;;;;;1.40;0.60;;;;;;;-128.00;-1.00;-1.00;100152;1299;1003053;-28
2022/06/11 09:47:47;;;;;;;2.10;0.40;;;;;;;-128.00;-1.00;-1.00;100211;1299;1003385;-24
2022/06/11 09:50:23;;;;;;;0.90;0.40;;;;;;;-128.00;-1.00;-1.00;100143;1299;1003876;-24
2022/06/11 09:52:57;;;;;;;1.20;0.50;;;;;;;-128.00;-1.00;-1.00;100071;1299;1003625;-28
2022/06/11 09:55:27;;;;;;;2.00;0.90;;;;;;;-128.00;-1.00;-1.00;100139;1299;1004245;-28
2022/06/11 09:58:05;;;;;;;1.50;0.50;;;;;;;-128.00;-1.00;-1.00;100188;1299;1003792;-28
2022/06/11 10:00:38;;;;;;;1.70;0.40;;;;;;;-128.00;-1.00;-1.00;100144;1299;1003174;-28
2022/06/11 10:03:22;;;;;;;0.60;0.30;;;;;;;-128.00;-1.00;-1.00;100163;1299;1003753;-28
2022/06/11 10:05:57;;;;;;;0.90;0.40;;;;;;;-128.00;-1.00;-1.00;100119;1299;1002925;-28
2022/06/11 10:08:35;;;;;;;7.70;0.70;;;;;;;-128.00;-1.00;-1.00;100135;1298;1004344;-24
2022/06/11 10:11:05;;;;;;;1.20;0.80;;;;;;;-128.00;-1.00;-1.00;100259;1299;1004002;-25
2022/06/11 10:13:34;;;;;;;3.70;0.70;;;;;;;-128.00;-1.00;-1.00;100389;1299;1003434;-28
2022/06/11 10:16:09;;;;;;;2.90;1.00;;;;;;;-128.00;-1.00;-1.00;100184;1299;1004505;-24
2022/06/11 10:18:38;;;;;;;1.70;0.50;;;;;;;-128.00;-1.00;-1.00;100095;1298;1004150;-25
2022/06/11 10:21:11;;;;;;;0.60;0.50;;;;;;;-128.00;-1.00;-1.00;100255;1299;1003662;-25
2022/06/11 10:23:46;;;;;;;3.10;0.80;;;;;;;-128.00;-1.00;-1.00;100216;1298;1003209;-25
2022/06/11 10:26:18;;;;;;;5.30;0.50;;;;;;;-128.00;-1.00;-1.00;100157;1299;1003834;-28
2022/06/11 10:28:57;;;;;;;0.70;0.30;;;;;;;-128.00;-1.00;-1.00;100199;1299;1003397;-28
2022/06/11 10:31:30;;;;;;;1.80;0.50;;;;;;;-128.00;-1.00;-1.00;100217;1299;1003182;-25
2022/06/11 10:34:13;;;;;;;2.00;0.70;;;;;;;-128.00;-1.00;-1.00;100252;1298;1003120;-24
2022/06/11 10:36:57;;;;;;;5.80;0.70;;;;;;;-128.00;-1.00;-1.00;100239;1299;1002962;-28
2022/06/11 10:39:38;;;;;;;1.50;0.50;;;;;;;-128.00;-1.00;-1.00;100196;1299;1003007;-28
2022/06/11 10:42:23;;;;;;;1.30;0.30;;;;;;;-128.00;-1.00;-1.00;100134;1299;1003922;-28
2022/06/11 10:44:53;;;;;;;4.90;0.60;;;;;;;-128.00;-1.00;-1.00;100180;1299;1004455;-28
2022/06/11 10:47:25;;;;;;;0.70;0.50;;;;;;;-128.00;-1.00;-1.00;100180;1298;1004295;-28
2022/06/11 10:49:59;;;;;;;2.00;0.40;;;;;;;-128.00;-1.00;-1.00;100169;1298;1003696;-28
2022/06/11 10:52:35;;;;;;;3.20;0.60;;;;;;;-128.00;-1.00;-1.00;100150;1299;1003420;-25
2022/06/11 10:55:06;;;;;;;2.80;0.50;;;;;;;-128.00;-1.00;-1.00;100150;1298;1003449;-28
2022/06/11 10:57:35;;;;;;;3.10;0.70;;;;;;;-128.00;-1.00;-1.00;100136;1297;1004594;-28
2022/06/11 11:00:26;;;;;;;2.20;0.50;;;;;;;-128.00;-1.00;-1.00;100014;1299;1003458;-28
2022/06/11 11:03:00;;;;;;;6.90;0.40;;;;;;;-128.00;-1.00;-1.00;100281;1299;1003200;-28
2022/06/11 11:05:42;;;;;;;1.00;0.50;;;;;;;-128.00;-1.00;-1.00;100221;1299;1003441;-25
2022/06/11 11:08:12;;;;;;;1.30;0.70;;;;;;;-128.00;-1.00;-1.00;100223;1299;1004339;-25
2022/06/11 11:10:45;;;;;;;0.80;0.50;;;;;;;-128.00;-1.00;-1.00;100233;1299;1003825;-25
2022/06/11 11:13:25;;;;;;;2.20;0.70;;;;;;;-128.00;-1.00;-1.00;100255;1299;1002985;-28
2022/06/11 11:16:09;;;;;;;0.90;0.50;;;;;;;-128.00;-1.00;-1.00;100273;1297;1003300;-24
2022/06/11 11:18:56;;;;;;;6.10;0.60;;;;;;;-128.00;-1.00;-1.00;100226;1298;1002777;-28
2022/06/11 11:21:36;;;;;;;2.90;1.20;;;;;;;-128.00;-1.00;-1.00;100249;1299;1003067;-28
2022/06/11 11:24:19;;;;;;;1.10;0.40;;;;;;;-128.00;-1.00;-1.00;100173;1299;1002936;-24
2022/06/11 11:26:59;;;;;;;1.20;0.90;;;;;;;-128.00;-1.00;-1.00;100136;1299;1003551;-24
2022/06/11 11:29:32;;;;;;;2.50;0.60;;;;;;;-128.00;-1.00;-1.00;100330;1298;1003789;-24
2022/06/11 11:32:06;;;;;;;1.20;0.50;;;;;;;-128.00;-1.00;-1.00;100274;1299;1003096;-28
2022/06/11 11:34:42;;;;;;;1.30;0.50;;;;;;;-128.00;-1.00;-1.00;100126;1299;1003487;-28
2022/06/11 11:37:13;;;;;;;0.30;0.30;;;;;;;-128.00;-1.00;-1.00;100163;1299;1003292;-28
2022/06/11 11:39:49;;;;;;;1.20;0.50;;;;;;;-128.00;-1.00;-1.00;100224;1299;1002782;-28
2022/06/11 11:42:34;;;;;;;2.80;0.40;;;;;;;-128.00;-1.00;-1.00;100196;1299;1002878;-24